sensor_id;sensor_type;location;lat;lon;timestamp;temperature;humidity
24176;DHT22;12324;48.146;11.502;2024-03-17T01:34:09;7.80;99.90
24176;DHT22;12324;48.146;11.502;2024-03-17T01:36:37;7.20;99.90
24176;DHT22;12324;48.146;11.502;2024-03-17T01:39:02;7.00;99.90
24176;DHT22;12324;48.146;11.502;2024-03-17T01:41:28;7.00;99.90
24176;DHT22;12324;48.146;11.502;2024-03-17T01:48:47;7.00;99.90
24176;DHT22;12324;48.146;11.502;2024-03-17T01:51:15;6.70;99.90
24176;DHT22;12324;48.146;11.502;2024-03-17T01:53:42;6.70;99.90
24176;DHT22;12324;48.146;11.502;2024-03-17T01:56:10;6.80;99.90
24176;DHT22;12324;48.146;11.502;2024-03-17T01:58:37;6.80;99.90
24176;DHT22;12324;48.146;11.502;2024-03-17T02:01:03;6.80;99.90
24176;DHT22;12324;48.146;11.502;2024-03-17T02:03:30;6.90;99.90
24176;DHT22;12324;48.146;11.502;2024-03-17T02:05:57;6.90;99.90
24176;DHT22;12324;48.146;11.502;2024-03-17T02:08:23;7.00;99.90
24176;DHT22;12324;48.146;11.502;2024-03-17T02:10:54;7.00;99.90
24176;DHT22;12324;48.146;11.502;2024-03-17T02:13:21;7.00;99.90
24176;DHT22;12324;48.146;11.502;2024-03-17T02:15:48;7.10;99.90
24176;DHT22;12324;48.146;11.502;2024-03-17T02:18:14;7.10;99.90
24176;DHT22;12324;48.146;11.502;2024-03-17T02:20:40;7.20;99.90
24176;DHT22;12324;48.146;11.502;2024-03-17T02:23:21;7.20;99.90
24176;DHT22;12324;48.146;11.502;2024-03-17T02:25:47;7.20;99.90
24176;DHT22;12324;48.146;11.502;2024-03-17T02:28:14;7.20;99.90
24176;DHT22;12324;48.146;11.502;2024-03-17T02:30:40;7.10;99.90
24176;DHT22;12324;48.146;11.502;2024-03-17T02:33:06;7.10;99.90
24176;DHT22;12324;48.146;11.502;2024-03-17T02:35:32;7.10;99.90
24176;DHT22;12324;48.146;11.502;2024-03-17T02:37:58;7.10;99.90
24176;DHT22;12324;48.146;11.502;2024-03-17T02:40:24;7.00;99.90
24176;DHT22;12324;48.146;11.502;2024-03-17T02:42:50;7.00;99.90
24176;DHT22;12324;48.146;11.502;2024-03-17T02:45:16;7.10;99.90
24176;DHT22;12324;48.146;11.502;2024-03-17T02:47:42;7.10;99.90
24176;DHT22;12324;48.146;11.502;2024-03-17T02:50:08;7.10;99.90
24176;DHT22;12324;48.146;11.502;2024-03-17T02:52:35;7.10;99.90
24176;DHT22;12324;48.146;11.502;2024-03-17T02:55:01;7.10;99.90
24176;DHT22;12324;48.146;11.502;2024-03-17T02:57:27;7.10;99.90
24176;DHT22;12324;48.146;11.502;2024-03-17T02:59:58;7.10;99.90
24176;DHT22;12324;48.146;11.502;2024-03-17T03:02:24;7.10;99.90
24176;DHT22;12324;48.146;11.502;2024-03-17T03:04:50;7.00;99.90
24176;DHT22;12324;48.146;11.502;2024-03-17T03:07:16;7.00;99.90
24176;DHT22;12324;48.146;11.502;2024-03-17T03:09:42;7.00;99.90
24176;DHT22;12324;48.146;11.502;2024-03-17T03:12:08;6.90;99.90
24176;DHT22;12324;48.146;11.502;2024-03-17T03:14:34;6.90;99.90
24176;DHT22;12324;48.146;11.502;2024-03-17T03:17:00;6.90;99.90
24176;DHT22;12324;48.146;11.502;2024-03-17T03:19:26;6.90;99.90
24176;DHT22;12324;48.146;11.502;2024-03-17T03:21:53;6.80;99.90
24176;DHT22;12324;48.146;11.502;2024-03-17T03:24:19;6.80;99.90
24176;DHT22;12324;48.146;11.502;2024-03-17T03:26:45;6.80;99.90
24176;DHT22;12324;48.146;11.502;2024-03-17T03:29:11;6.80;99.90
24176;DHT22;12324;48.146;11.502;2024-03-17T03:31:37;6.80;99.90
24176;DHT22;12324;48.146;11.502;2024-03-17T03:34:06;6.80;99.90
24176;DHT22;12324;48.146;11.502;2024-03-17T03:36:38;6.80;99.90
24176;DHT22;12324;48.146;11.502;2024-03-17T03:39:04;6.80;99.90
24176;DHT22;12324;48.146;11.502;2024-03-17T03:41:31;6.80;99.90
24176;DHT22;12324;48.146;11.502;2024-03-17T03:43:58;6.80;99.90
24176;DHT22;12324;48.146;11.502;2024-03-17T03:46:24;6.80;99.90
24176;DHT22;12324;48.146;11.502;2024-03-17T03:48:51;6.80;99.90
24176;DHT22;12324;48.146;11.502;2024-03-17T03:51:17;6.80;99.90
24176;DHT22;12324;48.146;11.502;2024-03-17T03:53:43;6.90;99.90
24176;DHT22;12324;48.146;11.502;2024-03-17T03:56:10;6.90;99.90
24176;DHT22;12324;48.146;11.502;2024-03-17T03:58:37;6.80;99.90
24176;DHT22;12324;48.146;11.502;2024-03-17T04:01:10;6.90;99.90
24176;DHT22;12324;48.146;11.502;2024-03-17T04:03:47;6.90;99.90
24176;DHT22;12324;48.146;11.502;2024-03-17T04:06:13;6.90;99.90
24176;DHT22;12324;48.146;11.502;2024-03-17T04:08:41;6.80;99.90
24176;DHT22;12324;48.146;11.502;2024-03-17T04:11:08;6.80;99.90
24176;DHT22;12324;48.146;11.502;2024-03-17T04:13:34;6.80;99.90
24176;DHT22;12324;48.146;11.502;2024-03-17T04:16:03;6.70;99.90
24176;DHT22;12324;48.146;11.502;2024-03-17T04:18:29;6.80;99.90
24176;DHT22;12324;48.146;11.502;2024-03-17T04:20:56;6.80;99.90
24176;DHT22;12324;48.146;11.502;2024-03-17T07:50:06;6.60;99.90
24176;DHT22;12324;48.146;11.502;2024-03-17T08:36:30;9.50;99.90
24176;DHT22;12324;48.146;11.502;2024-03-17T08:38:56;11.30;99.90
24176;DHT22;12324;48.146;11.502;2024-03-17T08:41:24;11.30;99.90
24176;DHT22;12324;48.146;11.502;2024-03-17T09:35:53;11.10;99.90
24176;DHT22;12324;48.146;11.502;2024-03-17T09:38:19;12.80;99.90
24176;DHT22;12324;48.146;11.502;2024-03-17T09:40:49;12.90;99.90
24176;DHT22;12324;48.146;11.502;2024-03-17T09:43:21;12.60;99.90
24176;DHT22;12324;48.146;11.502;2024-03-17T09:45:49;12.10;99.90
24176;DHT22;12324;48.146;11.502;2024-03-17T09:48:17;12.20;99.90
24176;DHT22;12324;48.146;11.502;2024-03-17T09:50:53;12.10;99.90
24176;DHT22;12324;48.146;11.502;2024-03-17T09:53:33;12.50;99.90
24176;DHT22;12324;48.146;11.502;2024-03-17T09:56:03;12.40;99.90
24176;DHT22;12324;48.146;11.502;2024-03-17T09:58:31;12.70;99.90
24176;DHT22;12324;48.146;11.502;2024-03-17T10:00:57;12.80;99.90
24176;DHT22;12324;48.146;11.502;2024-03-17T10:03:50;13.00;99.90
24176;DHT22;12324;48.146;11.502;2024-03-17T10:06:21;13.10;99.90
24176;DHT22;12324;48.146;11.502;2024-03-17T10:42:02;13.20;99.90
24176;DHT22;12324;48.146;11.502;2024-03-17T10:44:29;14.00;99.90
24176;DHT22;12324;48.146;11.502;2024-03-17T10:46:56;13.90;99.90
24176;DHT22;12324;48.146;11.502;2024-03-17T10:49:31;13.50;99.90
24176;DHT22;12324;48.146;11.502;2024-03-17T10:52:08;13.50;99.90
24176;DHT22;12324;48.146;11.502;2024-03-17T10:54:39;13.60;99.90
24176;DHT22;12324;48.146;11.502;2024-03-17T11:39:03;14.00;99.90
24176;DHT22;12324;48.146;11.502;2024-03-17T11:41:38;14.70;99.90
24176;DHT22;12324;48.146;11.502;2024-03-17T11:46:54;14.80;99.90
24176;DHT22;12324;48.146;11.502;2024-03-17T11:52:00;15.20;99.90
24176;DHT22;12324;48.146;11.502;2024-03-17T11:54:29;15.00;99.90
24176;DHT22;12324;48.146;11.502;2024-03-17T11:56:56;14.90;99.90
24176;DHT22;12324;48.146;11.502;2024-03-17T11:59:25;14.90;99.90
24176;DHT22;12324;48.146;11.502;2024-03-17T12:01:52;14.80;99.90
24176;DHT22;12324;48.146;11.502;2024-03-17T12:04:19;14.80;99.90
24176;DHT22;12324;48.146;11.502;2024-03-17T12:06:46;15.00;99.90
24176;DHT22;12324;48.146;11.502;2024-03-17T12:14:28;14.50;99.90
24176;DHT22;12324;48.146;11.502;2024-03-17T12:17:05;14.50;99.90
24176;DHT22;12324;48.146;11.502;2024-03-17T12:19:33;14.60;99.90
24176;DHT22;12324;48.146;11.502;2024-03-17T12:22:01;14.50;99.90
24176;DHT22;12324;48.146;11.502;2024-03-17T12:24:29;14.10;99.90
24176;DHT22;12324;48.146;11.502;2024-03-17T12:26:56;13.90;99.90
24176;DHT22;12324;48.146;11.502;2024-03-17T12:29:31;14.10;99.90
24176;DHT22;12324;48.146;11.502;2024-03-17T12:32:06;14.50;99.90
24176;DHT22;12324;48.146;11.502;2024-03-17T12:34:37;14.20;99.90
24176;DHT22;12324;48.146;11.502;2024-03-17T12:37:05;14.40;99.90
24176;DHT22;12324;48.146;11.502;2024-03-17T12:42:08;14.70;99.90
24176;DHT22;12324;48.146;11.502;2024-03-17T12:44:54;14.60;99.90
24176;DHT22;12324;48.146;11.502;2024-03-17T13:03:06;14.40;99.90
24176;DHT22;12324;48.146;11.502;2024-03-17T13:05:33;14.60;99.90
24176;DHT22;12324;48.146;11.502;2024-03-17T13:07:59;14.40;99.90
24176;DHT22;12324;48.146;11.502;2024-03-17T13:10:26;14.30;99.90
24176;DHT22;12324;48.146;11.502;2024-03-17T13:13:04;14.30;99.90
24176;DHT22;12324;48.146;11.502;2024-03-17T13:15:31;14.60;99.90
24176;DHT22;12324;48.146;11.502;2024-03-17T13:18:00;14.60;99.90
24176;DHT22;12324;48.146;11.502;2024-03-17T13:20:26;14.60;99.90
24176;DHT22;12324;48.146;11.502;2024-03-17T13:22:53;14.70;99.90
24176;DHT22;12324;48.146;11.502;2024-03-17T13:25:22;14.50;99.90
24176;DHT22;12324;48.146;11.502;2024-03-17T13:27:50;14.80;99.90
24176;DHT22;12324;48.146;11.502;2024-03-17T13:30:18;14.40;99.90
24176;DHT22;12324;48.146;11.502;2024-03-17T13:32:44;14.60;99.90
24176;DHT22;12324;48.146;11.502;2024-03-17T13:35:20;14.70;99.90
24176;DHT22;12324;48.146;11.502;2024-03-17T13:37:47;14.90;99.90
24176;DHT22;12324;48.146;11.502;2024-03-17T13:40:14;14.70;99.90
24176;DHT22;12324;48.146;11.502;2024-03-17T13:42:43;14.80;99.90
24176;DHT22;12324;48.146;11.502;2024-03-17T13:45:11;15.10;99.90
24176;DHT22;12324;48.146;11.502;2024-03-17T13:47:41;15.30;99.90
24176;DHT22;12324;48.146;11.502;2024-03-17T13:50:07;15.20;99.90
24176;DHT22;12324;48.146;11.502;2024-03-17T13:52:44;15.10;99.90
24176;DHT22;12324;48.146;11.502;2024-03-17T13:55:20;15.00;99.90
24176;DHT22;12324;48.146;11.502;2024-03-17T13:57:49;14.50;99.90
24176;DHT22;12324;48.146;11.502;2024-03-17T14:00:15;14.40;99.90
24176;DHT22;12324;48.146;11.502;2024-03-17T14:02:50;14.50;99.90
24176;DHT22;12324;48.146;11.502;2024-03-17T14:05:17;14.70;99.90
24176;DHT22;12324;48.146;11.502;2024-03-17T14:07:43;14.80;99.90
24176;DHT22;12324;48.146;11.502;2024-03-17T14:10:15;15.30;99.90
24176;DHT22;12324;48.146;11.502;2024-03-17T14:12:42;15.40;99.90
24176;DHT22;12324;48.146;11.502;2024-03-17T14:15:09;15.10;99.90
24176;DHT22;12324;48.146;11.502;2024-03-17T14:20:06;14.80;99.90
24176;DHT22;12324;48.146;11.502;2024-03-17T14:22:36;14.80;99.90
24176;DHT22;12324;48.146;11.502;2024-03-17T14:25:04;14.90;99.90
24176;DHT22;12324;48.146;11.502;2024-03-17T15:11:45;14.70;99.90
24176;DHT22;12324;48.146;11.502;2024-03-17T15:14:12;13.90;99.90
24176;DHT22;12324;48.146;11.502;2024-03-17T15:16:38;13.90;99.90
24176;DHT22;12324;48.146;11.502;2024-03-17T15:19:08;13.70;99.90
24176;DHT22;12324;48.146;11.502;2024-03-17T15:21:33;13.80;99.90
24176;DHT22;12324;48.146;11.502;2024-03-17T15:24:00;13.70;99.90
24176;DHT22;12324;48.146;11.502;2024-03-17T15:26:30;13.60;99.90
24176;DHT22;12324;48.146;11.502;2024-03-17T15:58:21;13.40;99.90
24176;DHT22;12324;48.146;11.502;2024-03-17T16:00:47;13.20;99.90
24176;DHT22;12324;48.146;11.502;2024-03-17T16:03:13;13.20;99.90
24176;DHT22;12324;48.146;11.502;2024-03-17T16:05:39;13.20;99.90
24176;DHT22;12324;48.146;11.502;2024-03-17T16:08:08;13.20;99.90
24176;DHT22;12324;48.146;11.502;2024-03-17T16:10:35;13.10;99.90
24176;DHT22;12324;48.146;11.502;2024-03-17T16:13:02;13.00;99.90
24176;DHT22;12324;48.146;11.502;2024-03-17T16:15:28;12.90;99.90
24176;DHT22;12324;48.146;11.502;2024-03-17T16:17:56;12.90;99.90
24176;DHT22;12324;48.146;11.502;2024-03-17T16:23:00;12.80;99.90
24176;DHT22;12324;48.146;11.502;2024-03-17T16:25:26;12.70;99.90
24176;DHT22;12324;48.146;11.502;2024-03-17T16:27:52;12.70;99.90
24176;DHT22;12324;48.146;11.502;2024-03-17T16:30:20;12.60;99.90
24176;DHT22;12324;48.146;11.502;2024-03-17T16:32:46;12.60;99.90
24176;DHT22;12324;48.146;11.502;2024-03-17T16:35:12;12.60;99.90
24176;DHT22;12324;48.146;11.502;2024-03-17T16:37:38;12.60;99.90
24176;DHT22;12324;48.146;11.502;2024-03-17T16:40:04;12.50;99.90
24176;DHT22;12324;48.146;11.502;2024-03-17T16:42:32;12.50;99.90
24176;DHT22;12324;48.146;11.502;2024-03-17T16:45:04;12.50;99.90
24176;DHT22;12324;48.146;11.502;2024-03-17T16:47:31;12.40;99.90
24176;DHT22;12324;48.146;11.502;2024-03-17T16:49:58;12.40;99.90
24176;DHT22;12324;48.146;11.502;2024-03-17T16:52:27;12.40;99.90
24176;DHT22;12324;48.146;11.502;2024-03-17T16:54:53;12.30;99.90
24176;DHT22;12324;48.146;11.502;2024-03-17T16:57:20;12.30;99.90
24176;DHT22;12324;48.146;11.502;2024-03-17T16:59:46;12.40;99.90
24176;DHT22;12324;48.146;11.502;2024-03-17T17:02:17;12.30;99.90
24176;DHT22;12324;48.146;11.502;2024-03-17T17:04:44;12.30;99.90
24176;DHT22;12324;48.146;11.502;2024-03-17T17:07:12;12.20;99.90
24176;DHT22;12324;48.146;11.502;2024-03-17T17:09:38;12.20;99.90
24176;DHT22;12324;48.146;11.502;2024-03-17T17:12:05;12.20;99.90
24176;DHT22;12324;48.146;11.502;2024-03-17T17:14:32;12.40;99.90
24176;DHT22;12324;48.146;11.502;2024-03-17T17:17:11;12.30;99.90
24176;DHT22;12324;48.146;11.502;2024-03-17T17:19:38;12.00;99.90
24176;DHT22;12324;48.146;11.502;2024-03-17T17:22:06;11.90;99.90
24176;DHT22;12324;48.146;11.502;2024-03-17T17:24:32;11.90;99.90
24176;DHT22;12324;48.146;11.502;2024-03-17T17:26:59;11.80;99.90
24176;DHT22;12324;48.146;11.502;2024-03-17T17:29:33;11.70;99.90
24176;DHT22;12324;48.146;11.502;2024-03-17T17:31:59;11.70;99.90
24176;DHT22;12324;48.146;11.502;2024-03-17T17:34:26;11.80;99.90
24176;DHT22;12324;48.146;11.502;2024-03-17T17:46:38;11.80;99.90
24176;DHT22;12324;48.146;11.502;2024-03-17T17:49:04;11.50;99.90
24176;DHT22;12324;48.146;11.502;2024-03-17T17:51:30;11.40;99.90
24176;DHT22;12324;48.146;11.502;2024-03-17T17:53:58;11.60;99.90
24176;DHT22;12324;48.146;11.502;2024-03-17T17:56:23;11.50;99.90
24176;DHT22;12324;48.146;11.502;2024-03-17T17:58:50;11.40;99.90
24176;DHT22;12324;48.146;11.502;2024-03-17T18:18:38;11.40;99.90
24176;DHT22;12324;48.146;11.502;2024-03-17T18:21:09;11.10;99.90
24176;DHT22;12324;48.146;11.502;2024-03-17T18:23:37;11.10;99.90
24176;DHT22;12324;48.146;11.502;2024-03-17T18:26:07;11.30;99.90
24176;DHT22;12324;48.146;11.502;2024-03-17T18:28:36;11.30;99.90
24176;DHT22;12324;48.146;11.502;2024-03-17T18:31:02;11.10;99.90
24176;DHT22;12324;48.146;11.502;2024-03-17T18:33:34;11.10;99.90
24176;DHT22;12324;48.146;11.502;2024-03-17T18:36:00;11.00;99.90
24176;DHT22;12324;48.146;11.502;2024-03-17T18:38:26;10.90;99.90
24176;DHT22;12324;48.146;11.502;2024-03-17T18:41:05;11.00;99.90
24176;DHT22;12324;48.146;11.502;2024-03-17T18:43:36;11.20;99.90
24176;DHT22;12324;48.146;11.502;2024-03-17T18:46:12;11.20;99.90
24176;DHT22;12324;48.146;11.502;2024-03-17T18:48:40;11.30;99.90
24176;DHT22;12324;48.146;11.502;2024-03-17T18:51:09;10.90;99.90
24176;DHT22;12324;48.146;11.502;2024-03-17T18:53:41;10.70;99.90
24176;DHT22;12324;48.146;11.502;2024-03-17T18:56:07;10.70;99.90
24176;DHT22;12324;48.146;11.502;2024-03-17T18:58:34;11.10;99.90
24176;DHT22;12324;48.146;11.502;2024-03-17T19:01:01;11.40;99.90
24176;DHT22;12324;48.146;11.502;2024-03-17T19:03:31;11.40;99.90
24176;DHT22;12324;48.146;11.502;2024-03-17T19:06:04;11.40;99.90
24176;DHT22;12324;48.146;11.502;2024-03-17T19:08:31;11.20;99.90
24176;DHT22;12324;48.146;11.502;2024-03-17T19:10:57;11.10;99.90
24176;DHT22;12324;48.146;11.502;2024-03-17T19:13:23;11.00;99.90
24176;DHT22;12324;48.146;11.502;2024-03-17T19:18:34;10.70;99.90
24176;DHT22;12324;48.146;11.502;2024-03-17T19:23:35;10.70;99.90
24176;DHT22;12324;48.146;11.502;2024-03-17T19:26:02;10.90;99.90
24176;DHT22;12324;48.146;11.502;2024-03-17T19:28:29;10.80;99.90
24176;DHT22;12324;48.146;11.502;2024-03-17T19:30:59;10.80;99.90
24176;DHT22;12324;48.146;11.502;2024-03-17T19:33:28;10.70;99.90
24176;DHT22;12324;48.146;11.502;2024-03-17T19:35:55;10.60;99.90
24176;DHT22;12324;48.146;11.502;2024-03-17T19:38:22;10.60;99.90
24176;DHT22;12324;48.146;11.502;2024-03-17T19:40:59;10.60;99.90
24176;DHT22;12324;48.146;11.502;2024-03-17T19:43:27;10.60;99.90
24176;DHT22;12324;48.146;11.502;2024-03-17T19:46:03;10.60;99.90
24176;DHT22;12324;48.146;11.502;2024-03-17T19:48:36;10.50;99.90
24176;DHT22;12324;48.146;11.502;2024-03-17T19:51:09;10.60;99.90
24176;DHT22;12324;48.146;11.502;2024-03-17T19:53:37;10.50;99.90
24176;DHT22;12324;48.146;11.502;2024-03-17T19:56:04;10.60;99.90
24176;DHT22;12324;48.146;11.502;2024-03-17T19:58:30;10.50;99.90
24176;DHT22;12324;48.146;11.502;2024-03-17T20:00:56;10.60;99.90
24176;DHT22;12324;48.146;11.502;2024-03-17T20:03:22;10.60;99.90
24176;DHT22;12324;48.146;11.502;2024-03-17T20:05:49;10.60;99.90
24176;DHT22;12324;48.146;11.502;2024-03-17T20:08:15;10.60;99.90
24176;DHT22;12324;48.146;11.502;2024-03-17T20:10:41;10.70;99.90
24176;DHT22;12324;48.146;11.502;2024-03-17T20:13:15;10.70;99.90
24176;DHT22;12324;48.146;11.502;2024-03-17T20:15:41;10.60;99.90
24176;DHT22;12324;48.146;11.502;2024-03-17T20:18:08;10.60;99.90
24176;DHT22;12324;48.146;11.502;2024-03-17T20:20:34;10.60;99.90
24176;DHT22;12324;48.146;11.502;2024-03-17T20:23:00;10.50;99.90
24176;DHT22;12324;48.146;11.502;2024-03-17T20:25:26;10.50;99.90
24176;DHT22;12324;48.146;11.502;2024-03-17T20:27:52;10.50;99.90
24176;DHT22;12324;48.146;11.502;2024-03-17T21:24:14;10.40;99.90
24176;DHT22;12324;48.146;11.502;2024-03-17T21:26:40;10.10;99.90
24176;DHT22;12324;48.146;11.502;2024-03-17T21:29:08;10.10;99.90
24176;DHT22;12324;48.146;11.502;2024-03-17T21:31:34;10.10;99.90
24176;DHT22;12324;48.146;11.502;2024-03-17T21:34:00;10.10;99.90
24176;DHT22;12324;48.146;11.502;2024-03-17T21:36:26;10.10;99.90
24176;DHT22;12324;48.146;11.502;2024-03-17T21:38:52;10.10;99.90
24176;DHT22;12324;48.146;11.502;2024-03-17T21:41:18;10.10;99.90
24176;DHT22;12324;48.146;11.502;2024-03-17T21:43:46;10.00;99.90
24176;DHT22;12324;48.146;11.502;2024-03-17T21:46:12;10.00;99.90
24176;DHT22;12324;48.146;11.502;2024-03-17T21:48:38;10.00;99.90
24176;DHT22;12324;48.146;11.502;2024-03-17T21:51:07;10.00;99.90
24176;DHT22;12324;48.146;11.502;2024-03-17T21:53:33;10.00;99.90
24176;DHT22;12324;48.146;11.502;2024-03-17T21:56:00;10.00;99.90
24176;DHT22;12324;48.146;11.502;2024-03-17T21:58:31;10.00;99.90
24176;DHT22;12324;48.146;11.502;2024-03-17T22:01:01;9.90;99.90
24176;DHT22;12324;48.146;11.502;2024-03-17T22:03:30;10.00;99.90
24176;DHT22;12324;48.146;11.502;2024-03-17T22:05:58;9.90;99.90
24176;DHT22;12324;48.146;11.502;2024-03-17T22:08:29;9.90;99.90
24176;DHT22;12324;48.146;11.502;2024-03-17T22:10:56;9.90;99.90
24176;DHT22;12324;48.146;11.502;2024-03-17T22:13:24;9.90;99.90
24176;DHT22;12324;48.146;11.502;2024-03-17T22:15:58;9.90;99.90
24176;DHT22;12324;48.146;11.502;2024-03-17T22:21:01;9.90;99.90
24176;DHT22;12324;48.146;11.502;2024-03-17T22:23:30;9.80;99.90
24176;DHT22;12324;48.146;11.502;2024-03-17T22:25:59;9.80;99.90
24176;DHT22;12324;48.146;11.502;2024-03-17T22:28:32;9.80;99.90
24176;DHT22;12324;48.146;11.502;2024-03-17T22:31:02;9.80;99.90
24176;DHT22;12324;48.146;11.502;2024-03-17T22:33:33;9.70;99.90
24176;DHT22;12324;48.146;11.502;2024-03-17T22:36:04;9.70;99.90
24176;DHT22;12324;48.146;11.502;2024-03-17T22:38:32;9.70;99.90
24176;DHT22;12324;48.146;11.502;2024-03-17T22:41:00;9.70;99.90
24176;DHT22;12324;48.146;11.502;2024-03-17T22:43:28;9.80;99.90
24176;DHT22;12324;48.146;11.502;2024-03-17T22:45:56;9.70;99.90
24176;DHT22;12324;48.146;11.502;2024-03-17T22:48:23;9.80;99.90
24176;DHT22;12324;48.146;11.502;2024-03-17T22:50:52;9.80;99.90
24176;DHT22;12324;48.146;11.502;2024-03-17T22:53:20;9.80;99.90
24176;DHT22;12324;48.146;11.502;2024-03-17T22:55:52;9.80;99.90
24176;DHT22;12324;48.146;11.502;2024-03-17T22:58:20;9.80;99.90
24176;DHT22;12324;48.146;11.502;2024-03-17T23:00:47;9.80;99.90
24176;DHT22;12324;48.146;11.502;2024-03-17T23:03:26;9.80;99.90
24176;DHT22;12324;48.146;11.502;2024-03-17T23:05:53;9.80;99.90
24176;DHT22;12324;48.146;11.502;2024-03-17T23:08:20;9.80;99.90
24176;DHT22;12324;48.146;11.502;2024-03-17T23:10:46;9.80;99.90
24176;DHT22;12324;48.146;11.502;2024-03-17T23:13:17;9.80;99.90
24176;DHT22;12324;48.146;11.502;2024-03-17T23:15:47;9.80;99.90
24176;DHT22;12324;48.146;11.502;2024-03-17T23:18:23;9.80;99.90
24176;DHT22;12324;48.146;11.502;2024-03-17T23:20:53;9.80;99.90
24176;DHT22;12324;48.146;11.502;2024-03-17T23:23:19;9.80;99.90
24176;DHT22;12324;48.146;11.502;2024-03-17T23:25:45;9.80;99.90
24176;DHT22;12324;48.146;11.502;2024-03-17T23:28:12;9.80;99.90
24176;DHT22;12324;48.146;11.502;2024-03-17T23:30:39;9.80;99.90
24176;DHT22;12324;48.146;11.502;2024-03-17T23:33:08;9.80;99.90
24176;DHT22;12324;48.146;11.502;2024-03-17T23:35:35;9.80;99.90
24176;DHT22;12324;48.146;11.502;2024-03-17T23:38:02;9.80;99.90
24176;DHT22;12324;48.146;11.502;2024-03-17T23:40:29;9.80;99.90
24176;DHT22;12324;48.146;11.502;2024-03-17T23:42:56;9.80;99.90
24176;DHT22;12324;48.146;11.502;2024-03-17T23:45:23;9.80;99.90
24176;DHT22;12324;48.146;11.502;2024-03-17T23:47:49;9.80;99.90
24176;DHT22;12324;48.146;11.502;2024-03-17T23:50:15;9.80;99.90
24176;DHT22;12324;48.146;11.502;2024-03-17T23:52:43;9.80;99.90
24176;DHT22;12324;48.146;11.502;2024-03-17T23:55:10;9.80;99.90
24176;DHT22;12324;48.146;11.502;2024-03-17T23:57:38;9.70;99.90
